KCLT/CLT METAR and TAF weather

Enter ICAO airport designator
Station Type Date Time Source
KCLT METAR 2022/05/26 04:52 UTC NOAA

KCLT 260452Z 10010KT 10SM OVC013 19/16 A3023 RMK SLP230 T01940156 402220167


Station Type Date Time Source
KCLT Decoded METAR 2022/05/26 04:52 UTC NOAA

CHARLOTTE/DOUGLAS INTERNATIONAL , NC, United States (KCLT) 35-13N 80-57W 220M
May 26, 2022 - 12:52 AM EDT / 2022.05.26 0452 UTC
Wind: from the E (100 degrees) at 12 MPH (10 KT):0
Visibility: 10 mile(s):0
Sky conditions: overcast
Temperature: 66.9 F (19.4 C)
Dew Point: 60.1 F (15.6 C)
Relative Humidity: 78%
Pressure (altimeter): 30.23 in. Hg (1023 hPa)
ob: KCLT 260452Z 10010KT 10SM OVC013 19/16 A3023 RMK SLP230 T01940156 402220167
cycle: 5

Station Type Date Time Source
KCLT TAF 2022/05/26 04:57 UTC NOAA

TAF
AMD KCLT 260355Z 2604/2706 07009KT P6SM SCT016 BKN024
TEMPO 2604/2608 SCT008 BKN016
FM260800 11007KT P6SM OVC007
FM261700 16010KT P6SM VCSH BKN012
FM261900 16011KT P6SM -SHRA SCT045 PROB30 2619/2624 4SM TSRA BR BKN035CB
FM270300 19009KT P6SM SHRA BKN020

Example: see airport list